createdAt,value
2023-01-29T00:00:38.362Z,52.93
2023-01-29T00:01:38.459Z,52.85
2023-01-29T00:02:38.432Z,52.87
2023-01-29T00:03:38.367Z,52.87
2023-01-29T00:04:38.419Z,52.76
2023-01-29T00:05:38.376Z,52.76
2023-01-29T00:07:38.388Z,52.55
2023-01-29T00:08:38.397Z,52.55
2023-01-29T00:09:38.390Z,52.49
2023-01-29T00:10:38.397Z,52.54
2023-01-29T00:11:38.401Z,52.53
2023-01-29T00:12:38.451Z,52.58
2023-01-29T00:13:38.450Z,52.56
2023-01-29T00:14:38.449Z,52.58
2023-01-29T00:15:38.426Z,52.65
2023-01-29T00:16:38.492Z,52.68
2023-01-29T00:18:38.469Z,52.68
2023-01-29T00:19:38.443Z,52.71
2023-01-29T00:20:38.409Z,52.71
2023-01-29T00:21:38.417Z,52.63
2023-01-29T00:22:38.419Z,52.87
2023-01-29T00:23:38.568Z,52.84
2023-01-29T00:24:38.428Z,52.82
2023-01-29T00:25:38.438Z,52.77
2023-01-29T00:26:38.482Z,52.82
2023-01-29T00:27:38.467Z,52.74
2023-01-29T00:28:38.448Z,52.74
2023-01-29T00:29:38.431Z,52.60
2023-01-29T00:30:38.445Z,52.36
2023-01-29T00:31:38.573Z,52.44
2023-01-29T00:32:38.533Z,52.50
2023-01-29T00:33:38.464Z,52.34
2023-01-29T00:34:38.470Z,52.37
2023-01-29T00:35:38.458Z,52.33
2023-01-29T00:36:38.467Z,52.19
2023-01-29T00:37:38.512Z,52.16
2023-01-29T00:38:38.461Z,51.99
2023-01-29T00:39:47.464Z,51.99
2023-01-29T00:40:38.538Z,51.94
2023-01-29T00:41:38.493Z,51.94
2023-01-29T00:42:38.473Z,52.00
2023-01-29T00:43:38.467Z,52.00
2023-01-29T00:44:38.548Z,52.18
2023-01-29T00:46:38.595Z,52.02
2023-01-29T00:47:38.537Z,52.18
2023-01-29T00:48:38.477Z,52.18
2023-01-29T00:49:38.556Z,52.40
2023-01-29T00:50:38.486Z,52.40
2023-01-29T00:51:38.526Z,52.53
2023-01-29T00:52:38.534Z,52.53
2023-01-29T00:53:38.523Z,52.50
2023-01-29T00:54:38.515Z,52.59
2023-01-29T00:55:38.517Z,52.77
2023-01-29T00:56:38.493Z,52.77
2023-01-29T00:57:38.551Z,53.08
2023-01-29T00:58:38.562Z,53.20
2023-01-29T00:59:38.560Z,53.16
2023-01-29T01:01:38.574Z,53.34
2023-01-29T01:02:38.541Z,53.20
2023-01-29T01:03:38.558Z,53.26
2023-01-29T01:04:38.525Z,53.30
2023-01-29T01:05:38.604Z,53.16
2023-01-29T01:07:38.565Z,53.33
2023-01-29T01:08:38.574Z,53.23
2023-01-29T01:09:38.592Z,53.19
2023-01-29T01:10:38.605Z,53.17
2023-01-29T01:11:38.563Z,53.17
2023-01-29T01:12:38.582Z,53.38
2023-01-29T01:13:38.549Z,53.32
2023-01-29T01:14:38.545Z,53.35
2023-01-29T01:15:38.589Z,53.84
2023-01-29T01:16:38.589Z,53.80
2023-01-29T01:17:38.615Z,54.02
2023-01-29T01:18:38.555Z,54.02
2023-01-29T01:19:38.608Z,54.10
2023-01-29T01:20:38.587Z,54.10
2023-01-29T01:21:38.566Z,53.95
2023-01-29T01:22:38.599Z,53.95
2023-01-29T01:23:38.781Z,53.85
2023-01-29T01:24:38.617Z,53.87
2023-01-29T01:26:38.607Z,53.89
2023-01-29T01:27:38.578Z,53.88
2023-01-29T01:28:38.579Z,53.84
2023-01-29T01:29:38.615Z,53.73
2023-01-29T01:30:38.621Z,53.63
2023-01-29T01:31:38.656Z,53.61
2023-01-29T01:32:38.637Z,53.48
2023-01-29T01:33:38.669Z,53.44
2023-01-29T01:34:38.620Z,53.44
2023-01-29T01:35:38.653Z,53.58
2023-01-29T01:36:38.606Z,53.54
2023-01-29T01:37:38.617Z,53.56
2023-01-29T01:39:38.611Z,53.55
2023-01-29T01:40:38.648Z,53.55
2023-01-29T01:41:38.656Z,53.73
2023-01-29T01:42:38.610Z,53.82
2023-01-29T01:43:38.662Z,53.78
2023-01-29T01:44:38.645Z,54.16
2023-01-29T01:45:38.755Z,54.20
2023-01-29T01:46:38.720Z,54.20
2023-01-29T01:47:38.650Z,54.18
2023-01-29T01:48:38.664Z,54.25
2023-01-29T01:49:38.673Z,54.25
2023-01-29T01:50:38.672Z,54.00
2023-01-29T01:51:38.721Z,53.78
2023-01-29T01:52:38.636Z,53.63
2023-01-29T01:53:38.752Z,53.54
2023-01-29T01:54:38.644Z,53.55
2023-01-29T01:55:38.636Z,53.91
2023-01-29T01:56:38.689Z,54.06
2023-01-29T01:57:38.700Z,54.15
2023-01-29T01:58:38.652Z,54.15
2023-01-29T01:59:38.699Z,54.22
2023-01-29T02:00:38.783Z,54.19
2023-01-29T02:01:38.701Z,54.15
2023-01-29T02:02:38.694Z,54.15
2023-01-29T02:03:38.696Z,54.15
2023-01-29T02:04:38.725Z,54.16
2023-01-29T02:05:38.703Z,54.11
2023-01-29T02:06:38.660Z,54.11
2023-01-29T02:07:38.670Z,54.12
2023-01-29T02:08:38.683Z,53.79
2023-01-29T02:09:38.839Z,53.87
2023-01-29T02:10:38.680Z,53.87
2023-01-29T02:11:38.696Z,53.92
2023-01-29T02:12:38.675Z,53.92
2023-01-29T02:13:38.744Z,53.97
2023-01-29T02:14:38.733Z,54.22
2023-01-29T02:15:38.712Z,54.22
2023-01-29T02:16:38.693Z,54.23
2023-01-29T02:17:38.756Z,54.56
2023-01-29T02:19:38.701Z,54.47
2023-01-29T02:20:38.800Z,54.83
2023-01-29T02:21:38.706Z,54.83
2023-01-29T02:22:38.745Z,54.73
2023-01-29T02:23:38.804Z,54.70
2023-01-29T02:24:38.779Z,54.70
2023-01-29T02:25:38.766Z,54.53
2023-01-29T02:26:38.744Z,54.31
2023-01-29T02:28:38.711Z,53.74
2023-01-29T02:29:38.723Z,53.81
2023-01-29T02:31:38.761Z,54.13
2023-01-29T02:32:38.796Z,54.04
2023-01-29T02:33:38.728Z,54.04
2023-01-29T02:34:38.737Z,53.78
2023-01-29T02:35:38.741Z,53.78
2023-01-29T02:36:38.771Z,53.41
2023-01-29T02:37:38.817Z,53.13
2023-01-29T02:38:38.774Z,53.13
2023-01-29T02:39:38.790Z,53.48
2023-01-29T02:40:38.814Z,53.74
2023-01-29T02:41:38.759Z,53.67
2023-01-29T02:42:38.749Z,53.47
2023-01-29T02:43:38.772Z,53.47
2023-01-29T02:44:38.773Z,53.47
2023-01-29T02:45:38.846Z,53.05
2023-01-29T02:46:38.783Z,53.06
2023-01-29T02:48:38.807Z,53.10
2023-01-29T02:49:38.761Z,53.07
2023-01-29T02:50:38.856Z,52.92
2023-01-29T02:51:38.779Z,53.08
2023-01-29T02:52:38.791Z,53.08
2023-01-29T02:53:38.788Z,53.00
2023-01-29T02:55:38.855Z,53.76
2023-01-29T02:56:38.779Z,53.76
2023-01-29T02:57:38.785Z,53.73
2023-01-29T02:58:38.788Z,53.75
2023-01-29T02:59:38.792Z,53.75
2023-01-29T03:00:38.858Z,53.53
2023-01-29T03:01:38.845Z,53.28
2023-01-29T03:02:38.851Z,53.28
2023-01-29T03:03:38.880Z,52.74
2023-01-29T03:04:38.830Z,52.67
2023-01-29T03:05:38.824Z,52.81
2023-01-29T03:06:38.829Z,52.81
2023-01-29T03:07:38.815Z,53.27
2023-01-29T03:08:38.839Z,53.54
2023-01-29T03:09:38.856Z,53.65
2023-01-29T03:10:38.815Z,53.62
2023-01-29T03:11:38.878Z,53.39
2023-01-29T03:14:38.833Z,53.00
2023-01-29T03:15:38.888Z,52.90
2023-01-29T03:16:38.948Z,52.86
2023-01-29T03:17:38.830Z,52.86
2023-01-29T03:18:38.882Z,52.90
2023-01-29T03:19:38.856Z,52.92
2023-01-29T03:20:38.844Z,52.87
2023-01-29T03:21:38.932Z,52.67
2023-01-29T03:22:38.845Z,52.56
2023-01-29T03:23:38.854Z,52.86
2023-01-29T03:24:38.856Z,52.86
2023-01-29T03:25:38.916Z,53.41
2023-01-29T03:26:38.900Z,52.99
2023-01-29T03:27:38.898Z,52.99
2023-01-29T03:29:38.907Z,52.84
2023-01-29T03:30:38.877Z,52.54
2023-01-29T03:31:39.011Z,52.54
2023-01-29T03:33:38.864Z,52.79
2023-01-29T03:34:38.875Z,52.61
2023-01-29T03:35:38.881Z,52.49
2023-01-29T03:36:38.966Z,52.78
2023-01-29T03:37:38.931Z,53.16
2023-01-29T03:38:38.933Z,53.41
2023-01-29T03:39:38.942Z,53.41
2023-01-29T03:40:38.934Z,53.24
2023-01-29T03:41:38.963Z,53.28
2023-01-29T03:42:38.933Z,53.33
2023-01-29T03:43:38.943Z,53.39
2023-01-29T03:44:38.958Z,53.11
2023-01-29T03:45:38.985Z,52.69
2023-01-29T03:46:38.948Z,52.54
2023-01-29T03:47:38.921Z,52.54
2023-01-29T03:48:38.909Z,52.36
2023-01-29T03:49:38.919Z,52.35
2023-01-29T03:50:38.927Z,52.30
2023-01-29T03:52:38.954Z,52.58
2023-01-29T03:53:38.958Z,52.58
2023-01-29T03:54:38.965Z,52.29
2023-01-29T03:55:38.937Z,52.29
2023-01-29T03:56:39.005Z,52.97
2023-01-29T03:57:38.984Z,53.01
2023-01-29T03:59:38.984Z,53.04
2023-01-29T04:01:39.006Z,52.60
2023-01-29T04:02:38.954Z,52.58
2023-01-29T04:03:38.950Z,52.62
2023-01-29T04:04:39.032Z,52.29
2023-01-29T04:05:38.959Z,52.37
2023-01-29T04:06:38.959Z,52.37
2023-01-29T04:07:39.007Z,52.58
2023-01-29T04:08:38.965Z,52.97
2023-01-29T04:09:39.041Z,52.80
2023-01-29T04:10:38.980Z,52.91
2023-01-29T04:11:38.984Z,52.81
2023-01-29T04:12:38.974Z,52.64
2023-01-29T04:13:38.957Z,52.64
2023-01-29T04:14:38.981Z,52.22
2023-01-29T04:15:38.983Z,52.22
2023-01-29T04:16:39.029Z,52.15
2023-01-29T04:17:39.011Z,52.13
2023-01-29T04:18:38.982Z,52.19
2023-01-29T04:19:38.978Z,52.19
2023-01-29T04:20:39.055Z,52.01
2023-01-29T04:22:39.039Z,52.06
2023-01-29T04:23:38.989Z,52.06
2023-01-29T04:24:38.991Z,52.27
2023-01-29T04:25:38.998Z,52.37
2023-01-29T04:26:38.999Z,52.07
2023-01-29T04:27:39.066Z,51.60
2023-01-29T04:28:39.072Z,51.38
2023-01-29T04:29:39.069Z,51.51
2023-01-29T04:30:39.079Z,51.62
2023-01-29T04:31:39.173Z,51.67
2023-01-29T04:32:39.054Z,51.45
2023-01-29T04:33:39.012Z,51.05
2023-01-29T04:34:39.038Z,50.72
2023-01-29T04:35:39.172Z,50.59
2023-01-29T04:36:39.038Z,50.90
2023-01-29T04:37:39.084Z,51.05
2023-01-29T04:38:39.015Z,51.05
2023-01-29T04:39:39.044Z,50.85
2023-01-29T04:40:39.084Z,50.58
2023-01-29T04:41:39.052Z,50.28
2023-01-29T04:42:39.038Z,50.39
2023-01-29T04:43:39.052Z,50.65
2023-01-29T04:45:39.118Z,50.36
2023-01-29T04:46:39.055Z,50.36
2023-01-29T04:47:39.116Z,50.31
2023-01-29T04:48:39.060Z,50.44
2023-01-29T04:49:39.052Z,50.44
2023-01-29T04:50:39.116Z,50.87
2023-01-29T04:51:39.065Z,50.66
2023-01-29T04:52:39.059Z,50.66
2023-01-29T04:53:39.121Z,50.88
2023-01-29T04:54:39.068Z,51.23
2023-01-29T04:55:39.065Z,51.55
2023-01-29T04:56:39.079Z,52.00
2023-01-29T04:57:39.123Z,52.11
2023-01-29T04:58:39.065Z,52.11
2023-01-29T04:59:39.076Z,51.90
2023-01-29T05:00:39.157Z,51.34
2023-01-29T05:01:39.185Z,51.34
2023-01-29T05:02:39.141Z,51.60
2023-01-29T05:03:39.103Z,51.53
2023-01-29T05:04:39.092Z,51.53
2023-01-29T05:05:39.108Z,51.36
2023-01-29T05:06:39.108Z,51.22
2023-01-29T05:07:39.141Z,51.14
2023-01-29T05:08:39.160Z,51.56
2023-01-29T05:09:39.161Z,51.60
2023-01-29T05:10:39.196Z,51.23
2023-01-29T05:11:39.148Z,51.18
2023-01-29T05:12:39.159Z,51.13
2023-01-29T05:13:39.637Z,51.59
2023-01-29T05:14:39.156Z,51.83
2023-01-29T05:15:39.146Z,51.76
2023-01-29T05:16:39.114Z,51.76
2023-01-29T05:17:39.111Z,51.69
2023-01-29T05:18:39.141Z,51.33
2023-01-29T05:19:39.146Z,50.95
2023-01-29T05:20:39.150Z,50.79
2023-01-29T05:21:41.127Z,50.72
2023-01-29T05:22:39.175Z,50.72
2023-01-29T05:23:39.172Z,50.73
2023-01-29T05:24:39.148Z,50.74
2023-01-29T05:25:39.176Z,50.39
2023-01-29T05:26:39.191Z,50.39
2023-01-29T05:27:39.180Z,50.62
2023-01-29T05:28:39.239Z,50.71
2023-01-29T05:29:39.193Z,50.63
2023-01-29T05:30:39.228Z,50.40
2023-01-29T05:31:39.254Z,50.31
2023-01-29T05:32:39.156Z,50.16
2023-01-29T05:33:39.209Z,50.10
2023-01-29T05:34:39.179Z,50.10
2023-01-29T05:35:39.193Z,50.25
2023-01-29T05:36:39.209Z,50.25
2023-01-29T05:37:39.162Z,50.23
2023-01-29T05:38:39.206Z,50.49
2023-01-29T05:39:39.184Z,50.50
2023-01-29T05:40:39.223Z,50.57
2023-01-29T05:42:39.206Z,50.68
2023-01-29T05:43:39.219Z,50.66
2023-01-29T05:44:39.234Z,50.70
2023-01-29T05:45:39.202Z,50.70
2023-01-29T05:46:39.354Z,50.79
2023-01-29T05:47:39.255Z,50.96
2023-01-29T05:48:39.228Z,51.20
2023-01-29T05:49:39.236Z,51.36
2023-01-29T05:50:39.201Z,51.47
2023-01-29T05:51:39.248Z,51.88
2023-01-29T05:52:39.253Z,52.20
2023-01-29T05:53:39.218Z,52.15
2023-01-29T05:54:39.204Z,52.15
2023-01-29T05:55:39.213Z,51.42
2023-01-29T05:56:39.212Z,51.43
2023-01-29T05:57:39.261Z,51.36
2023-01-29T05:58:39.272Z,51.42
2023-01-29T05:59:39.301Z,51.46
2023-01-29T06:00:39.256Z,51.46
2023-01-29T06:01:39.317Z,51.83
2023-01-29T06:02:39.266Z,52.03
2023-01-29T06:03:39.219Z,52.03
2023-01-29T06:04:39.281Z,51.86
2023-01-29T06:05:39.240Z,52.03
2023-01-29T06:06:39.247Z,52.03
2023-01-29T06:07:39.296Z,51.86
2023-01-29T06:08:39.250Z,52.09
2023-01-29T06:09:39.242Z,52.09
2023-01-29T06:10:39.294Z,51.88
2023-01-29T06:12:39.320Z,51.88
2023-01-29T06:13:39.262Z,52.00
2023-01-29T06:14:39.295Z,51.78
2023-01-29T06:15:39.260Z,51.78
2023-01-29T06:16:39.281Z,51.39
2023-01-29T06:17:39.344Z,51.28
2023-01-29T06:18:39.291Z,51.28
2023-01-29T06:19:39.312Z,50.93
2023-01-29T06:20:39.313Z,50.93
2023-01-29T06:21:39.270Z,50.73
2023-01-29T06:22:39.344Z,50.77
2023-01-29T06:23:39.269Z,50.77
2023-01-29T06:24:39.276Z,50.91
2023-01-29T06:25:39.322Z,51.27
2023-01-29T06:26:39.295Z,51.37
2023-01-29T06:27:39.307Z,51.29
2023-01-29T06:28:39.310Z,51.32
2023-01-29T06:29:39.296Z,51.32
2023-01-29T06:30:39.341Z,51.34
2023-01-29T06:31:39.932Z,51.55
2023-01-29T06:32:39.491Z,51.68
2023-01-29T06:33:39.331Z,51.68
2023-01-29T06:34:39.340Z,51.93
2023-01-29T06:35:39.319Z,52.30
2023-01-29T06:36:39.313Z,52.21
2023-01-29T06:37:39.322Z,52.42
2023-01-29T06:38:39.311Z,52.42
2023-01-29T06:39:39.355Z,53.06
2023-01-29T06:40:39.388Z,53.24
2023-01-29T06:41:39.367Z,53.14
2023-01-29T06:42:39.385Z,53.26
2023-01-29T06:43:39.379Z,53.26
2023-01-29T06:44:39.376Z,52.76
2023-01-29T06:45:39.431Z,52.58
2023-01-29T06:46:39.359Z,52.58
2023-01-29T06:47:39.387Z,52.09
2023-01-29T06:48:39.400Z,51.70
2023-01-29T06:49:39.336Z,51.70
2023-01-29T06:50:39.352Z,51.67
2023-01-29T06:51:39.346Z,51.21
2023-01-29T06:52:39.398Z,50.99
2023-01-29T06:53:39.401Z,51.12
2023-01-29T06:54:39.405Z,51.12
2023-01-29T06:55:39.369Z,50.80
2023-01-29T06:56:39.398Z,50.80
2023-01-29T06:57:39.368Z,50.63
2023-01-29T06:58:39.404Z,50.81
2023-01-29T06:59:39.367Z,50.81
2023-01-29T07:01:39.398Z,50.76
2023-01-29T07:02:39.399Z,50.67
2023-01-29T07:03:39.464Z,50.78
2023-01-29T07:04:39.422Z,50.70
2023-01-29T07:05:39.435Z,50.49
2023-01-29T07:06:39.413Z,50.49
2023-01-29T07:07:39.372Z,50.32
2023-01-29T07:08:39.386Z,50.71
2023-01-29T07:09:39.390Z,50.58
2023-01-29T07:10:39.417Z,50.49
2023-01-29T07:11:39.395Z,50.53
2023-01-29T07:12:39.405Z,50.45
2023-01-29T07:13:39.418Z,50.50
2023-01-29T07:14:39.386Z,50.50
2023-01-29T07:15:39.419Z,50.37
2023-01-29T07:16:39.489Z,50.67
2023-01-29T07:17:39.418Z,50.67
2023-01-29T07:18:39.406Z,50.84
2023-01-29T07:19:39.445Z,51.07
2023-01-29T07:20:39.429Z,51.07
2023-01-29T07:21:39.492Z,50.88
2023-01-29T07:22:40.401Z,50.50
2023-01-29T07:23:39.431Z,50.50
2023-01-29T07:24:39.430Z,50.56
2023-01-29T07:25:39.462Z,51.15
2023-01-29T07:26:39.461Z,51.75
2023-01-29T07:27:39.476Z,52.39
2023-01-29T07:28:39.470Z,52.39
2023-01-29T07:29:39.478Z,52.47
2023-01-29T07:30:39.501Z,52.15
2023-01-29T07:31:39.637Z,52.30
2023-01-29T07:32:39.471Z,52.08
2023-01-29T07:33:39.475Z,52.26
2023-01-29T07:34:39.515Z,52.38
2023-01-29T07:35:39.505Z,52.02
2023-01-29T07:36:39.475Z,52.02
2023-01-29T07:37:39.466Z,51.63
2023-01-29T07:38:39.497Z,51.55
2023-01-29T07:39:39.521Z,51.07
2023-01-29T07:40:39.471Z,51.07
2023-01-29T07:41:39.512Z,50.98
2023-01-29T07:42:39.513Z,51.05
2023-01-29T07:43:39.544Z,51.03
2023-01-29T07:44:39.510Z,51.40
2023-01-29T07:45:39.576Z,51.52
2023-01-29T07:46:39.512Z,51.52
2023-01-29T07:47:39.505Z,51.37
2023-01-29T07:48:39.498Z,50.93
2023-01-29T07:49:39.493Z,50.86
2023-01-29T07:50:39.481Z,50.86
2023-01-29T07:51:39.525Z,51.19
2023-01-29T07:52:39.568Z,51.13
2023-01-29T07:53:39.519Z,51.13
2023-01-29T07:54:39.506Z,50.88
2023-01-29T07:55:39.501Z,50.88
2023-01-29T07:56:39.511Z,50.31
2023-01-29T07:57:39.535Z,50.41
2023-01-29T07:58:39.495Z,50.41
2023-01-29T07:59:39.499Z,50.03
2023-01-29T08:00:39.520Z,49.93
2023-01-29T08:01:39.545Z,50.38
2023-01-29T08:02:39.557Z,50.18
2023-01-29T08:03:39.542Z,50.18
2023-01-29T08:05:39.529Z,50.40
2023-01-29T08:07:39.569Z,50.51
2023-01-29T08:08:39.524Z,50.51
2023-01-29T08:09:39.535Z,50.42
2023-01-29T08:10:39.535Z,50.45
2023-01-29T08:11:39.541Z,50.45
2023-01-29T08:12:39.577Z,50.28
2023-01-29T08:13:39.537Z,50.14
2023-01-29T08:15:40.693Z,49.98
2023-01-29T08:16:39.566Z,49.98
2023-01-29T08:18:39.587Z,49.90
2023-01-29T08:19:39.579Z,50.20
2023-01-29T08:20:39.590Z,50.20
2023-01-29T08:21:39.627Z,50.40
2023-01-29T08:22:39.568Z,50.40
2023-01-29T08:23:39.571Z,50.58
2023-01-29T08:24:53.360Z,50.34
2023-01-29T08:25:39.720Z,50.16
2023-01-29T08:26:39.606Z,50.16
2023-01-29T08:27:39.606Z,49.92
2023-01-29T08:28:39.567Z,50.41
2023-01-29T08:29:39.630Z,50.57
2023-01-29T08:30:39.709Z,50.62
2023-01-29T08:31:39.661Z,50.49
2023-01-29T08:32:39.600Z,50.31
2023-01-29T08:33:39.686Z,50.31
2023-01-29T08:34:39.593Z,50.00
2023-01-29T08:35:39.678Z,49.67
2023-01-29T08:36:39.623Z,49.67
2023-01-29T08:37:39.650Z,49.90
2023-01-29T08:38:39.616Z,49.71
2023-01-29T08:39:39.614Z,49.62
2023-01-29T08:40:39.600Z,49.62
2023-01-29T08:41:39.612Z,49.30
2023-01-29T08:42:39.600Z,49.36
2023-01-29T08:43:39.690Z,48.99
2023-01-29T08:44:39.626Z,48.93
2023-01-29T08:46:39.631Z,48.65
2023-01-29T08:47:39.621Z,48.65
2023-01-29T08:49:39.649Z,48.79
2023-01-29T08:50:39.641Z,48.91
2023-01-29T08:51:39.645Z,48.64
2023-01-29T08:52:39.709Z,48.68
2023-01-29T08:53:39.703Z,48.86
2023-01-29T08:54:39.681Z,48.86
2023-01-29T08:55:39.660Z,49.19
2023-01-29T08:56:39.678Z,49.19
2023-01-29T08:57:39.684Z,49.20
2023-01-29T08:58:39.652Z,49.33
2023-01-29T08:59:39.693Z,49.15
2023-01-29T09:00:39.691Z,49.15
2023-01-29T09:01:39.726Z,48.68
2023-01-29T09:03:39.658Z,48.81
2023-01-29T09:04:39.693Z,48.92
2023-01-29T09:05:39.711Z,48.77
2023-01-29T09:07:39.721Z,48.46
2023-01-29T09:08:39.707Z,48.46
2023-01-29T09:09:39.710Z,48.59
2023-01-29T09:10:39.715Z,48.47
2023-01-29T09:11:39.713Z,48.55
2023-01-29T09:12:39.688Z,48.57
2023-01-29T09:13:39.720Z,48.38
2023-01-29T09:14:39.690Z,48.38
2023-01-29T09:16:39.747Z,48.61
2023-01-29T09:17:39.766Z,48.70
2023-01-29T09:18:39.699Z,48.72
2023-01-29T09:19:39.720Z,48.87
2023-01-29T09:20:39.708Z,48.87
2023-01-29T09:21:39.711Z,48.89
2023-01-29T09:22:39.710Z,48.37
2023-01-29T09:23:39.856Z,48.41
2023-01-29T09:24:39.762Z,48.35
2023-01-29T09:25:39.721Z,48.39
2023-01-29T09:26:39.818Z,48.39
2023-01-29T09:27:39.773Z,48.12
2023-01-29T09:28:39.751Z,48.12
2023-01-29T09:30:39.820Z,47.65
2023-01-29T09:31:40.021Z,47.65
2023-01-29T09:32:53.909Z,47.59
2023-01-29T09:33:39.728Z,47.77
2023-01-29T09:34:39.760Z,47.92
2023-01-29T09:35:39.733Z,47.74
2023-01-29T09:36:39.751Z,47.83
2023-01-29T09:37:39.810Z,47.55
2023-01-29T09:38:39.765Z,47.54
2023-01-29T09:39:39.817Z,47.47
2023-01-29T09:40:39.744Z,47.25
2023-01-29T09:41:39.783Z,47.25
2023-01-29T09:42:39.744Z,47.21
2023-01-29T09:44:39.763Z,46.96
2023-01-29T09:45:39.795Z,46.93
2023-01-29T09:46:39.763Z,47.10
2023-01-29T09:47:39.808Z,46.74
2023-01-29T09:48:39.761Z,46.83
2023-01-29T09:49:39.804Z,46.83
2023-01-29T09:50:39.805Z,46.57
2023-01-29T09:51:39.821Z,46.63
2023-01-29T09:52:39.865Z,47.00
2023-01-29T09:54:39.795Z,47.41
2023-01-29T09:55:39.772Z,47.41
2023-01-29T09:56:39.821Z,47.19
2023-01-29T09:57:39.818Z,47.08
2023-01-29T09:58:39.788Z,47.08
2023-01-29T09:59:39.792Z,46.68
2023-01-29T10:01:39.956Z,46.83
2023-01-29T10:02:39.862Z,46.77
2023-01-29T10:03:39.818Z,46.95
2023-01-29T10:04:39.863Z,46.95
2023-01-29T10:05:39.840Z,46.85
2023-01-29T10:06:39.845Z,46.85
2023-01-29T10:07:39.816Z,46.51
2023-01-29T10:08:39.866Z,45.81
2023-01-29T10:09:39.861Z,45.89
2023-01-29T10:10:39.850Z,45.89
2023-01-29T10:11:39.822Z,45.50
2023-01-29T10:12:39.862Z,45.69
2023-01-29T10:13:39.860Z,45.73
2023-01-29T10:14:39.832Z,45.90
2023-01-29T10:15:39.848Z,46.57
2023-01-29T10:16:39.923Z,46.62
2023-01-29T10:17:39.902Z,46.76
2023-01-29T10:18:39.849Z,46.76
2023-01-29T10:19:39.829Z,46.73
2023-01-29T10:20:39.878Z,46.52
2023-01-29T10:21:39.838Z,46.17
2023-01-29T10:22:39.848Z,46.17
2023-01-29T10:23:39.907Z,46.11
2023-01-29T10:24:39.889Z,46.05
2023-01-29T10:25:39.905Z,45.92
2023-01-29T10:26:39.914Z,46.02
2023-01-29T10:27:39.904Z,45.96
2023-01-29T10:28:39.947Z,46.00
2023-01-29T10:29:39.922Z,46.00
2023-01-29T10:30:39.906Z,46.09
2023-01-29T10:31:40.103Z,46.09
2023-01-29T10:32:39.869Z,45.83
2023-01-29T10:33:48.992Z,45.74
2023-01-29T10:34:39.927Z,45.52
2023-01-29T10:35:39.916Z,45.57
2023-01-29T10:36:39.911Z,45.57
2023-01-29T10:37:39.930Z,45.72
2023-01-29T10:38:39.932Z,46.10
2023-01-29T10:39:39.907Z,46.10
2023-01-29T10:40:39.914Z,47.23
2023-01-29T10:41:39.976Z,47.48
2023-01-29T10:42:39.888Z,47.48
2023-01-29T10:43:39.898Z,47.72
2023-01-29T10:44:39.921Z,47.27
2023-01-29T10:45:39.913Z,47.27
2023-01-29T10:46:39.971Z,47.45
2023-01-29T10:47:39.968Z,47.15
2023-01-29T10:48:39.947Z,47.09
2023-01-29T10:49:39.974Z,47.53
2023-01-29T10:50:39.956Z,47.56
2023-01-29T10:51:40.013Z,47.50
2023-01-29T10:52:39.917Z,47.66
2023-01-29T10:53:39.926Z,47.67
2023-01-29T10:54:39.974Z,47.79
2023-01-29T10:55:39.971Z,47.75
2023-01-29T10:56:39.971Z,47.71
2023-01-29T10:57:39.943Z,47.63
2023-01-29T10:58:39.936Z,47.61
2023-01-29T10:59:39.971Z,47.90
2023-01-29T11:00:39.936Z,47.90
2023-01-29T11:01:40.053Z,48.34
2023-01-29T11:02:39.968Z,48.34
2023-01-29T11:03:39.998Z,48.30
2023-01-29T11:04:40.002Z,48.15
2023-01-29T11:05:39.993Z,47.95
2023-01-29T11:06:39.956Z,47.84
2023-01-29T11:07:40.004Z,47.22
2023-01-29T11:08:39.980Z,46.66
2023-01-29T11:09:39.962Z,46.91
2023-01-29T11:10:39.977Z,46.88
2023-01-29T11:11:39.962Z,46.88
2023-01-29T11:12:40.045Z,46.66
2023-01-29T11:13:39.963Z,46.66
2023-01-29T11:14:39.964Z,46.71
2023-01-29T11:15:39.967Z,46.93
2023-01-29T11:16:40.005Z,46.92
2023-01-29T11:17:40.628Z,46.53
2023-01-29T11:18:40.028Z,46.23
2023-01-29T11:19:39.991Z,46.58
2023-01-29T11:20:40.678Z,46.67
2023-01-29T11:21:40.017Z,46.67
2023-01-29T11:22:40.052Z,46.97
2023-01-29T11:23:40.004Z,46.90
2023-01-29T11:24:40.034Z,46.90
2023-01-29T11:25:40.034Z,46.86
2023-01-29T11:26:40.158Z,46.67
2023-01-29T11:27:40.029Z,46.69
2023-01-29T11:28:40.033Z,46.62
2023-01-29T11:29:39.997Z,46.62
2023-01-29T11:30:40.114Z,45.85
2023-01-29T11:31:40.077Z,45.85
2023-01-29T11:32:40.075Z,46.13
2023-01-29T11:33:40.070Z,46.13
2023-01-29T11:34:40.061Z,46.33
2023-01-29T11:35:40.055Z,46.51
2023-01-29T11:36:40.016Z,46.51
2023-01-29T11:37:40.053Z,46.71
2023-01-29T11:38:40.051Z,46.62
2023-01-29T11:39:40.084Z,46.57
2023-01-29T11:40:40.063Z,47.08
2023-01-29T11:41:40.076Z,47.11
2023-01-29T11:42:40.051Z,46.96
2023-01-29T11:43:40.064Z,46.81
2023-01-29T11:44:40.058Z,46.68
2023-01-29T11:45:40.042Z,46.68
2023-01-29T11:46:40.094Z,46.52
2023-01-29T11:47:40.045Z,46.29
2023-01-29T11:48:40.122Z,46.07
2023-01-29T11:49:40.053Z,46.07
2023-01-29T11:50:40.057Z,45.51
2023-01-29T11:51:40.133Z,45.60
2023-01-29T11:52:40.093Z,45.88
2023-01-29T11:53:40.111Z,45.92
2023-01-29T11:54:40.174Z,46.03
2023-01-29T11:55:50.224Z,46.30
2023-01-29T11:56:40.210Z,46.57
2023-01-29T11:57:40.125Z,46.57
2023-01-29T11:58:40.124Z,46.42
2023-01-29T11:59:40.082Z,46.77
2023-01-29T12:00:40.087Z,46.92
2023-01-29T12:01:40.121Z,46.96
2023-01-29T12:02:40.122Z,47.00
2023-01-29T12:03:40.090Z,46.68
2023-01-29T12:04:40.914Z,46.24
2023-01-29T12:05:40.172Z,45.99
2023-01-29T12:06:40.126Z,45.94
2023-01-29T12:07:40.118Z,45.89
2023-01-29T12:08:40.145Z,45.76
2023-01-29T12:09:40.108Z,45.76
2023-01-29T12:10:40.136Z,45.59
2023-01-29T12:11:40.190Z,45.45
2023-01-29T12:12:40.098Z,45.45
2023-01-29T12:13:40.183Z,45.49
2023-01-29T12:14:40.149Z,45.49
2023-01-29T12:15:40.158Z,45.55
2023-01-29T12:16:40.160Z,45.44
2023-01-29T12:17:40.134Z,45.34
2023-01-29T12:18:40.131Z,45.02
2023-01-29T12:19:40.138Z,45.41
2023-01-29T12:20:40.167Z,45.41
2023-01-29T12:21:40.163Z,45.47
2023-01-29T12:23:40.139Z,45.52
2023-01-29T12:25:40.200Z,45.58
2023-01-29T12:26:40.269Z,45.67
2023-01-29T12:27:40.187Z,45.55
2023-01-29T12:28:40.132Z,45.55
2023-01-29T12:30:40.188Z,44.92
2023-01-29T12:31:40.304Z,44.97
2023-01-29T12:32:40.174Z,44.97
2023-01-29T12:33:40.201Z,45.15
2023-01-29T12:34:40.241Z,45.70
2023-01-29T12:35:40.200Z,46.14
2023-01-29T12:36:40.209Z,46.02
2023-01-29T12:37:40.172Z,46.11
2023-01-29T12:38:40.169Z,46.11
2023-01-29T12:39:40.223Z,46.09
2023-01-29T12:40:40.198Z,46.08
2023-01-29T12:41:40.256Z,46.29
2023-01-29T12:42:40.227Z,46.51
2023-01-29T12:43:40.195Z,46.61
2023-01-29T12:44:40.170Z,46.61
2023-01-29T12:45:40.234Z,46.59
2023-01-29T12:46:40.347Z,46.47
2023-01-29T12:47:40.191Z,46.47
2023-01-29T12:48:40.196Z,46.03
2023-01-29T12:49:40.207Z,46.14
2023-01-29T12:50:40.239Z,46.14
2023-01-29T12:51:40.233Z,45.98
2023-01-29T12:52:40.236Z,46.36
2023-01-29T12:53:40.235Z,46.52
2023-01-29T12:54:40.277Z,46.83
2023-01-29T12:55:40.192Z,46.83
2023-01-29T12:56:40.252Z,47.42
2023-01-29T12:57:40.945Z,47.02
2023-01-29T12:58:40.262Z,46.98
2023-01-29T12:59:40.288Z,46.92
2023-01-29T13:00:40.340Z,46.84
2023-01-29T13:01:40.237Z,46.84
2023-01-29T13:02:40.272Z,46.19
2023-01-29T13:03:40.306Z,45.94
2023-01-29T13:04:40.261Z,45.87
2023-01-29T13:05:40.273Z,45.87
2023-01-29T13:06:40.272Z,46.08
2023-01-29T13:07:40.345Z,45.79
2023-01-29T13:08:40.242Z,45.66
2023-01-29T13:09:40.280Z,45.57
2023-01-29T13:10:40.259Z,45.37
2023-01-29T13:11:40.295Z,45.37
2023-01-29T13:12:40.257Z,44.97
2023-01-29T13:13:40.296Z,44.80
2023-01-29T13:14:40.256Z,44.80
2023-01-29T13:15:40.357Z,44.86
2023-01-29T13:16:40.294Z,44.62
2023-01-29T13:17:40.307Z,44.38
2023-01-29T13:18:40.301Z,44.38
2023-01-29T13:19:40.267Z,44.10
2023-01-29T13:20:40.311Z,44.10
2023-01-29T13:21:40.333Z,44.11
2023-01-29T13:24:40.293Z,44.01
2023-01-29T13:25:40.326Z,44.12
2023-01-29T13:26:40.384Z,44.09
2023-01-29T13:27:40.362Z,44.17
2023-01-29T13:28:40.327Z,44.56
2023-01-29T13:30:40.428Z,44.62
2023-01-29T13:31:40.339Z,44.58
2023-01-29T13:33:40.318Z,44.99
2023-01-29T13:34:40.299Z,44.99
2023-01-29T13:35:40.379Z,45.05
2023-01-29T13:36:40.313Z,44.47